createdAt,value
2022-08-18T00:00:00.878Z,19.20
2022-08-18T00:00:18.385Z,19.20
2022-08-18T00:00:32.846Z,19.20
2022-08-18T00:00:45.645Z,19.10
2022-08-18T00:00:58.696Z,19.10
2022-08-18T00:01:14.520Z,19.10
2022-08-18T00:01:26.777Z,19.10
2022-08-18T00:01:43.752Z,19.10
2022-08-18T00:02:04.944Z,19.10
2022-08-18T00:02:28.105Z,19.10
2022-08-18T00:03:00.486Z,19.10
2022-08-18T00:03:53.434Z,19.10
2022-08-18T00:03:55.903Z,19.00
2022-08-18T00:04:24.303Z,19.10
2022-08-18T00:04:48.616Z,19.10
2022-08-18T00:05:01.193Z,19.10
2022-08-18T00:05:13.773Z,19.10
2022-08-18T00:05:26.606Z,19.00
2022-08-18T00:05:38.480Z,19.00
2022-08-18T00:05:51.353Z,19.00
2022-08-18T00:06:03.106Z,19.00
2022-08-18T00:06:16.874Z,19.00
2022-08-18T00:06:29.624Z,19.00
2022-08-18T00:06:41.974Z,19.00
2022-08-18T00:06:53.691Z,19.00
2022-08-18T00:07:06.622Z,19.00
2022-08-18T00:07:20.979Z,19.00
2022-08-18T00:07:33.198Z,19.00
2022-08-18T00:07:47.068Z,19.00
2022-08-18T00:08:01.477Z,19.00
2022-08-18T00:08:13.211Z,19.10
2022-08-18T00:08:24.957Z,19.00
2022-08-18T00:08:38.587Z,19.00
2022-08-18T00:08:50.506Z,19.00
2022-08-18T00:09:06.651Z,19.00
2022-08-18T00:09:18.394Z,19.00
2022-08-18T00:09:32.440Z,19.00
2022-08-18T00:09:44.694Z,19.00
2022-08-18T00:09:58.517Z,19.10
2022-08-18T00:10:17.949Z,19.10
2022-08-18T00:10:30.780Z,19.10
2022-08-18T00:10:42.544Z,19.10
2022-08-18T00:10:54.247Z,19.10
2022-08-18T00:11:06.389Z,19.10
2022-08-18T00:11:18.140Z,19.10
2022-08-18T00:11:41.654Z,19.10
2022-08-18T00:11:53.884Z,19.10
2022-08-18T00:12:13.081Z,19.10
2022-08-18T00:12:34.254Z,19.10
2022-08-18T00:12:46.054Z,19.10
2022-08-18T00:12:58.810Z,19.10
2022-08-18T00:13:13.157Z,19.10
2022-08-18T00:13:24.854Z,19.10
2022-08-18T00:13:36.570Z,19.10
2022-08-18T00:13:48.269Z,19.10
2022-08-18T00:14:00.072Z,19.10
2022-08-18T00:14:22.340Z,19.10
2022-08-18T00:14:34.555Z,19.10
2022-08-18T00:14:46.656Z,19.10
2022-08-18T00:15:02.003Z,19.10
2022-08-18T00:15:14.828Z,19.10
2022-08-18T00:15:26.739Z,19.10
2022-08-18T00:15:48.710Z,19.10
2022-08-18T00:16:00.962Z,19.10
2022-08-18T00:16:12.697Z,19.10
2022-08-18T00:16:24.443Z,19.10
2022-08-18T00:16:36.189Z,19.10
2022-08-18T00:16:48.770Z,19.10
2022-08-18T00:17:00.501Z,19.10
2022-08-18T00:17:12.295Z,19.10
2022-08-18T00:17:24.170Z,19.10
2022-08-18T00:17:36.312Z,19.10
2022-08-18T00:17:48.047Z,19.10
2022-08-18T00:17:59.734Z,19.10
2022-08-18T00:18:11.424Z,19.10
2022-08-18T00:18:23.189Z,19.10
2022-08-18T00:18:34.877Z,19.10
2022-08-18T00:18:46.563Z,19.10
2022-08-18T00:18:58.337Z,19.10
2022-08-18T00:19:10.194Z,19.10
2022-08-18T00:19:45.356Z,19.10
2022-08-18T00:19:54.644Z,19.10
2022-08-18T00:20:09.151Z,19.00
2022-08-18T00:20:22.441Z,19.00
2022-08-18T00:20:34.197Z,19.00
2022-08-18T00:20:45.953Z,19.00
2022-08-18T00:20:57.682Z,19.00
2022-08-18T00:21:09.623Z,19.00
2022-08-18T00:21:21.373Z,19.00
2022-08-18T00:21:34.133Z,19.00
2022-08-18T00:21:45.813Z,19.00
2022-08-18T00:21:58.156Z,19.00
2022-08-18T00:22:14.902Z,19.00
2022-08-18T00:22:27.446Z,19.00
2022-08-18T00:22:40.037Z,19.00
2022-08-18T00:22:56.422Z,19.00
2022-08-18T00:23:08.864Z,19.00
2022-08-18T00:23:20.640Z,19.00
2022-08-18T00:23:32.635Z,19.00
2022-08-18T00:23:44.449Z,19.00
2022-08-18T00:23:56.147Z,19.00
2022-08-18T00:24:08.403Z,19.00
2022-08-18T00:24:20.175Z,19.00
2022-08-18T00:24:31.913Z,19.00
2022-08-18T00:24:49.416Z,19.00
2022-08-18T00:25:01.486Z,19.00
2022-08-18T00:25:14.458Z,19.00
2022-08-18T00:25:26.180Z,19.00
2022-08-18T00:25:37.878Z,19.00
2022-08-18T00:25:49.955Z,19.00
2022-08-18T00:26:03.910Z,19.00
2022-08-18T00:26:15.851Z,19.00
2022-08-18T00:26:27.612Z,19.00
2022-08-18T00:26:39.336Z,19.00
2022-08-18T00:26:52.833Z,19.00
2022-08-18T00:27:05.786Z,19.10
2022-08-18T00:27:28.237Z,19.00
2022-08-18T00:27:41.452Z,19.00
2022-08-18T00:27:53.178Z,19.00
2022-08-18T00:28:05.240Z,19.00
2022-08-18T00:28:17.024Z,19.00
2022-08-18T00:28:28.743Z,19.00
2022-08-18T00:28:40.484Z,19.00
2022-08-18T00:28:52.218Z,19.00
2022-08-18T00:29:03.975Z,19.10
2022-08-18T00:29:15.753Z,19.10
2022-08-18T00:29:27.544Z,19.00
2022-08-18T00:29:39.241Z,19.00
2022-08-18T00:29:51.766Z,19.00
2022-08-18T00:30:05.306Z,19.00
2022-08-18T00:30:18.858Z,19.00
2022-08-18T00:30:30.692Z,19.00
2022-08-18T00:30:42.382Z,19.00
2022-08-18T00:30:54.458Z,19.00
2022-08-18T00:31:06.406Z,19.00
2022-08-18T00:31:18.097Z,19.00
2022-08-18T00:31:29.827Z,19.00
2022-08-18T00:31:41.532Z,19.00
2022-08-18T00:31:53.241Z,19.00
2022-08-18T00:32:29.034Z,19.00
2022-08-18T00:32:53.441Z,19.00
2022-08-18T00:33:05.289Z,19.00
2022-08-18T00:33:17.045Z,19.10
2022-08-18T00:33:28.760Z,19.00
2022-08-18T00:33:40.490Z,19.00
2022-08-18T00:33:52.244Z,19.00
2022-08-18T00:34:04.026Z,19.00
2022-08-18T00:34:15.761Z,19.00
2022-08-18T00:34:27.576Z,19.00
2022-08-18T00:34:44.150Z,19.00
2022-08-18T00:34:55.897Z,19.00
2022-08-18T00:35:37.766Z,19.00
2022-08-18T00:35:49.520Z,19.00
2022-08-18T00:36:01.230Z,19.00
2022-08-18T00:36:12.973Z,19.10
2022-08-18T00:36:24.921Z,19.10
2022-08-18T00:36:36.665Z,19.10
2022-08-18T00:36:50.030Z,19.10
2022-08-18T00:37:01.785Z,19.10
2022-08-18T00:37:13.537Z,19.10
2022-08-18T00:37:25.309Z,19.10
2022-08-18T00:37:37.334Z,19.10
2022-08-18T00:37:49.289Z,19.10
2022-08-18T00:38:02.740Z,19.10
2022-08-18T00:38:24.786Z,19.10
2022-08-18T00:38:37.979Z,19.10
2022-08-18T00:38:49.713Z,19.10
2022-08-18T00:39:01.824Z,19.10
2022-08-18T00:39:13.559Z,19.10
2022-08-18T00:39:25.253Z,19.10
2022-08-18T00:39:39.810Z,19.10
2022-08-18T00:39:55.521Z,19.10
2022-08-18T00:40:08.330Z,19.10
2022-08-18T00:40:23.169Z,19.10
2022-08-18T00:40:42.906Z,19.10
2022-08-18T00:40:55.328Z,19.10
2022-08-18T00:41:07.324Z,19.10
2022-08-18T00:41:20.207Z,19.10
2022-08-18T00:41:31.920Z,19.10
2022-08-18T00:41:43.668Z,19.10
2022-08-18T00:41:56.236Z,19.10
2022-08-18T00:42:27.681Z,19.10
2022-08-18T00:42:49.009Z,19.10
2022-08-18T00:43:02.789Z,19.10
2022-08-18T00:43:27.845Z,19.10
2022-08-18T00:43:46.947Z,19.10
2022-08-18T00:43:58.742Z,19.10
2022-08-18T00:44:10.489Z,19.10
2022-08-18T00:44:22.216Z,19.10
2022-08-18T00:44:33.966Z,19.10
2022-08-18T00:44:45.765Z,19.10
2022-08-18T00:45:02.549Z,19.10
2022-08-18T00:45:17.419Z,19.10
2022-08-18T00:45:32.899Z,19.10
2022-08-18T00:45:44.754Z,19.10
2022-08-18T00:45:56.506Z,19.10
2022-08-18T00:46:12.001Z,19.10
2022-08-18T00:46:34.252Z,19.10
2022-08-18T00:46:45.975Z,19.10
2022-08-18T00:46:57.710Z,19.00
2022-08-18T00:47:09.433Z,19.00
2022-08-18T00:47:41.539Z,19.00
2022-08-18T00:47:53.190Z,19.00
2022-08-18T00:48:05.535Z,19.00
2022-08-18T00:48:17.329Z,19.00
2022-08-18T00:48:30.582Z,19.00
2022-08-18T00:48:48.297Z,19.00
2022-08-18T00:49:00.865Z,19.00
2022-08-18T00:49:12.634Z,19.00
2022-08-18T00:49:24.346Z,19.00
2022-08-18T00:49:36.820Z,19.00
2022-08-18T00:49:48.999Z,19.00
2022-08-18T00:50:00.703Z,19.00
2022-08-18T00:50:21.869Z,19.00
2022-08-18T00:50:37.230Z,19.00
2022-08-18T00:50:55.828Z,19.00
2022-08-18T00:51:13.149Z,19.00
2022-08-18T00:51:28.186Z,19.00
2022-08-18T00:51:43.566Z,19.00
2022-08-18T00:51:55.273Z,19.00
2022-08-18T00:52:07.029Z,19.00
2022-08-18T00:52:19.212Z,19.00
2022-08-18T00:52:30.941Z,19.10
2022-08-18T00:52:45.205Z,19.00
2022-08-18T00:52:59.654Z,19.10
2022-08-18T00:53:45.849Z,19.10
2022-08-18T00:54:00.714Z,19.10
2022-08-18T00:54:16.114Z,19.10
2022-08-18T00:54:29.859Z,19.20
2022-08-18T00:54:41.602Z,19.20
2022-08-18T00:54:53.353Z,19.20
2022-08-18T00:55:05.253Z,19.20
2022-08-18T00:55:18.115Z,19.20
2022-08-18T00:55:29.986Z,19.20
2022-08-18T00:55:51.339Z,19.20
2022-08-18T00:56:11.457Z,19.30
2022-08-18T00:56:26.785Z,19.20
2022-08-18T00:56:42.568Z,19.20
2022-08-18T00:56:56.211Z,19.20
2022-08-18T00:57:08.306Z,19.20
2022-08-18T00:57:21.459Z,19.20
2022-08-18T00:57:33.260Z,19.20
2022-08-18T00:57:45.311Z,19.20
2022-08-18T00:58:02.459Z,19.20
2022-08-18T00:58:18.336Z,19.20
2022-08-18T00:58:36.290Z,19.20
2022-08-18T00:58:57.892Z,19.20
2022-08-18T00:59:26.579Z,19.20
2022-08-18T00:59:48.661Z,19.20
2022-08-18T01:00:22.774Z,19.20
2022-08-18T01:00:34.881Z,19.20
2022-08-18T01:00:46.774Z,19.20
2022-08-18T01:00:58.667Z,19.20
2022-08-18T01:01:11.462Z,19.20
2022-08-18T01:01:23.873Z,19.10
2022-08-18T01:01:35.730Z,19.20
2022-08-18T01:01:48.198Z,19.10
2022-08-18T01:02:02.888Z,19.10
2022-08-18T01:02:20.534Z,19.10
2022-08-18T01:02:35.642Z,19.20
2022-08-18T01:02:49.788Z,19.20
2022-08-18T01:03:03.624Z,19.10
2022-08-18T01:03:16.488Z,19.20
2022-08-18T01:03:39.725Z,19.20
2022-08-18T01:03:55.090Z,19.20
2022-08-18T01:04:15.255Z,19.10
2022-08-18T01:04:32.483Z,19.20
2022-08-18T01:04:53.064Z,19.20
2022-08-18T01:05:11.988Z,19.20
2022-08-18T01:05:38.095Z,19.10
2022-08-18T01:06:18.329Z,19.10
2022-08-18T01:06:37.649Z,19.10
2022-08-18T01:06:58.730Z,19.10
2022-08-18T01:07:16.089Z,19.10
2022-08-18T01:07:32.577Z,19.10
2022-08-18T01:07:46.033Z,19.10
2022-08-18T01:07:57.730Z,19.10
2022-08-18T01:08:14.260Z,19.10
2022-08-18T01:08:28.972Z,19.10
2022-08-18T01:08:41.782Z,19.10
2022-08-18T01:08:54.358Z,19.10
2022-08-18T01:09:07.024Z,19.10
2022-08-18T01:09:19.628Z,19.10
2022-08-18T01:09:31.405Z,19.10
2022-08-18T01:09:43.133Z,19.10
2022-08-18T01:09:54.908Z,19.10
2022-08-18T01:10:07.316Z,19.00
2022-08-18T01:10:21.334Z,19.10
2022-08-18T01:10:33.440Z,19.10
2022-08-18T01:10:45.211Z,19.10
2022-08-18T01:10:57.965Z,19.00
2022-08-18T01:11:10.540Z,19.00
2022-08-18T01:11:22.285Z,19.00
2022-08-18T01:11:36.865Z,19.00
2022-08-18T01:11:48.581Z,19.00
2022-08-18T01:12:00.295Z,19.00
2022-08-18T01:12:45.397Z,19.00
2022-08-18T01:12:57.153Z,19.00
2022-08-18T01:13:08.941Z,19.00
2022-08-18T01:13:20.665Z,19.00
2022-08-18T01:13:33.132Z,19.00
2022-08-18T01:13:44.894Z,19.00
2022-08-18T01:13:57.851Z,19.10
2022-08-18T01:14:09.705Z,19.10
2022-08-18T01:14:21.551Z,19.10
2022-08-18T01:14:33.303Z,19.10
2022-08-18T01:14:45.284Z,19.10
2022-08-18T01:14:56.997Z,19.10
2022-08-18T01:15:09.214Z,19.10
2022-08-18T01:15:40.393Z,19.10
2022-08-18T01:15:52.155Z,19.10
2022-08-18T01:16:24.179Z,19.10
2022-08-18T01:17:14.190Z,19.10
2022-08-18T01:17:44.617Z,19.10
2022-08-18T01:18:18.764Z,19.10
2022-08-18T01:18:48.801Z,19.10
2022-08-18T01:19:18.833Z,19.10
2022-08-18T01:19:49.655Z,19.10
2022-08-18T01:20:20.186Z,19.10
2022-08-18T01:31:30.589Z,19.20
2022-08-18T01:31:54.327Z,19.20
2022-08-18T01:32:06.968Z,19.20
2022-08-18T01:32:22.436Z,19.20
2022-08-18T01:32:34.158Z,19.10
2022-08-18T01:32:48.453Z,19.10
2022-08-18T01:33:00.545Z,19.10
2022-08-18T01:33:12.390Z,19.10
2022-08-18T01:33:30.158Z,19.10
2022-08-18T01:33:43.902Z,19.10
2022-08-18T01:33:56.734Z,19.10
2022-08-18T01:34:10.097Z,19.10
2022-08-18T01:34:24.615Z,19.10
2022-08-18T01:34:37.061Z,19.10
2022-08-18T01:34:49.905Z,19.10
2022-08-18T01:35:01.648Z,19.10
2022-08-18T01:35:15.076Z,19.10
2022-08-18T01:35:27.138Z,19.10
2022-08-18T01:35:41.916Z,19.10
2022-08-18T01:35:53.753Z,19.10
2022-08-18T01:36:14.497Z,19.10
2022-08-18T01:36:26.193Z,19.10
2022-08-18T01:36:38.472Z,19.10
2022-08-18T01:36:52.388Z,19.10
2022-08-18T01:37:05.743Z,19.10
2022-08-18T01:37:19.743Z,19.20
2022-08-18T01:37:31.437Z,19.20
2022-08-18T01:37:43.231Z,19.20
2022-08-18T01:37:55.010Z,19.20
2022-08-18T01:38:06.706Z,19.20
2022-08-18T01:38:19.084Z,19.20
2022-08-18T01:38:32.193Z,19.20
2022-08-18T01:38:45.120Z,19.10
2022-08-18T01:38:57.018Z,19.10
2022-08-18T01:39:11.582Z,19.20
2022-08-18T01:41:17.649Z,19.20
2022-08-18T01:41:23.600Z,19.10
2022-08-18T01:41:25.163Z,19.10
2022-08-18T01:41:27.054Z,19.10
2022-08-18T01:41:31.643Z,19.20
2022-08-18T01:41:43.449Z,19.20
2022-08-18T01:41:55.280Z,19.20
2022-08-18T01:42:07.243Z,19.10
2022-08-18T01:42:19.025Z,19.20
2022-08-18T01:42:30.778Z,19.20
2022-08-18T01:42:45.648Z,19.20
2022-08-18T01:42:57.799Z,19.20
2022-08-18T01:43:10.335Z,19.10
2022-08-18T01:43:22.095Z,19.20
2022-08-18T01:43:35.988Z,19.20
2022-08-18T01:43:48.241Z,19.10
2022-08-18T01:44:01.763Z,19.10
2022-08-18T01:44:13.535Z,19.10
2022-08-18T01:44:25.703Z,19.10
2022-08-18T01:44:37.713Z,19.10
2022-08-18T01:44:51.265Z,19.10
2022-08-18T01:45:04.583Z,19.10
2022-08-18T01:45:17.538Z,19.10
2022-08-18T01:45:29.286Z,19.10
2022-08-18T01:45:41.830Z,19.10
2022-08-18T01:45:53.590Z,19.10
2022-08-18T01:46:05.734Z,19.00
2022-08-18T01:46:20.045Z,19.10
2022-08-18T01:46:33.712Z,19.10
2022-08-18T01:46:45.448Z,19.10
2022-08-18T01:46:57.499Z,19.10
2022-08-18T01:47:10.764Z,19.10
2022-08-18T01:47:22.553Z,19.10
2022-08-18T01:47:47.880Z,19.10
2022-08-18T01:48:00.783Z,19.10
2022-08-18T01:48:12.801Z,19.10
2022-08-18T01:48:24.483Z,19.10
2022-08-18T01:48:36.719Z,19.10
2022-08-18T01:48:48.924Z,19.10
2022-08-18T01:49:01.125Z,19.10
2022-08-18T01:49:13.274Z,19.10
2022-08-18T01:49:25.114Z,19.10
2022-08-18T01:49:37.593Z,19.10
2022-08-18T01:49:49.390Z,19.10
2022-08-18T01:50:01.158Z,19.10
2022-08-18T01:50:13.372Z,19.10
2022-08-18T01:50:25.197Z,19.10
2022-08-18T01:50:39.703Z,19.10
2022-08-18T01:50:53.511Z,19.10
2022-08-18T01:51:07.108Z,19.10
2022-08-18T01:51:20.527Z,19.10
2022-08-18T01:51:55.573Z,19.10
2022-08-18T01:52:07.391Z,19.10
2022-08-18T01:52:21.045Z,19.10
2022-08-18T01:52:34.051Z,19.10
2022-08-18T01:52:45.837Z,19.10
2022-08-18T01:52:57.570Z,19.10
2022-08-18T01:53:11.499Z,19.10
2022-08-18T01:53:23.258Z,19.10
2022-08-18T01:53:35.906Z,19.10
2022-08-18T01:53:48.624Z,19.00
2022-08-18T01:54:00.816Z,19.00
2022-08-18T01:54:13.899Z,19.00
2022-08-18T01:54:30.146Z,19.00
2022-08-18T01:54:42.990Z,19.00
2022-08-18T01:54:56.017Z,19.00
2022-08-18T01:55:08.024Z,19.00
2022-08-18T01:55:20.688Z,19.00
2022-08-18T01:55:36.015Z,19.00
2022-08-18T01:55:47.906Z,19.10
2022-08-18T01:55:59.662Z,19.10
2022-08-18T01:56:11.422Z,19.00
2022-08-18T01:56:23.206Z,19.10
2022-08-18T01:56:36.451Z,19.00
2022-08-18T01:56:49.289Z,19.00
2022-08-18T01:57:01.078Z,19.00
2022-08-18T01:57:14.629Z,19.00
2022-08-18T01:57:26.470Z,19.00
2022-08-18T01:57:42.926Z,19.00
2022-08-18T01:57:55.385Z,19.00
2022-08-18T01:58:07.888Z,19.00
2022-08-18T01:58:21.274Z,19.00
2022-08-18T01:58:33.506Z,19.00
2022-08-18T01:58:47.645Z,19.00
2022-08-18T01:58:59.365Z,19.00
2022-08-18T01:59:14.481Z,19.00
2022-08-18T01:59:26.286Z,19.00
2022-08-18T01:59:37.974Z,18.90
2022-08-18T01:59:49.783Z,19.00
2022-08-18T02:00:01.825Z,18.90
2022-08-18T02:00:14.969Z,18.90
2022-08-18T02:00:26.756Z,18.90
2022-08-18T02:00:38.530Z,18.90
2022-08-18T02:00:50.250Z,18.90
2022-08-18T02:01:02.759Z,19.00
2022-08-18T02:01:15.284Z,19.00
2022-08-18T02:01:36.365Z,19.00
2022-08-18T02:01:52.878Z,19.00
2022-08-18T02:02:05.705Z,19.00
2022-08-18T02:02:20.390Z,19.00
2022-08-18T02:02:32.860Z,19.00
2022-08-18T02:02:44.645Z,19.00
2022-08-18T02:03:01.845Z,19.00
2022-08-18T02:03:14.659Z,19.00
2022-08-18T02:03:27.108Z,19.00
2022-08-18T02:03:40.970Z,19.00
2022-08-18T02:04:10.947Z,18.90
2022-08-18T02:04:35.565Z,19.00
2022-08-18T02:04:48.106Z,19.00
2022-08-18T02:05:03.811Z,19.00
2022-08-18T02:05:18.259Z,19.00
2022-08-18T02:05:37.194Z,19.00
2022-08-18T02:05:49.871Z,19.00
2022-08-18T02:06:03.913Z,19.00
2022-08-18T02:06:18.611Z,19.00
2022-08-18T02:06:47.731Z,18.90
2022-08-18T02:07:02.543Z,18.90
2022-08-18T02:07:16.123Z,19.00
2022-08-18T02:07:36.267Z,19.00
2022-08-18T02:07:48.361Z,18.90
2022-08-18T02:08:06.388Z,18.90
2022-08-18T02:08:18.224Z,18.90
2022-08-18T02:08:30.639Z,18.90
2022-08-18T02:08:45.294Z,18.90
2022-08-18T02:09:01.628Z,18.90
2022-08-18T02:09:13.326Z,18.90
2022-08-18T02:09:25.201Z,18.90
2022-08-18T02:09:37.851Z,18.90
2022-08-18T02:09:51.089Z,18.90
2022-08-18T02:10:03.798Z,19.00
2022-08-18T02:10:16.344Z,18.90
2022-08-18T02:10:28.242Z,19.00
2022-08-18T02:10:40.041Z,18.90
2022-08-18T02:10:51.874Z,18.90
2022-08-18T02:11:04.016Z,18.90
2022-08-18T02:11:15.927Z,18.90
2022-08-18T02:11:27.707Z,18.90
2022-08-18T02:11:40.159Z,18.90
2022-08-18T02:11:52.949Z,18.90
2022-08-18T02:12:07.746Z,18.90
2022-08-18T02:12:20.757Z,19.00
2022-08-18T02:12:32.901Z,18.90
2022-08-18T02:12:44.663Z,18.90
2022-08-18T02:12:56.404Z,19.00
2022-08-18T02:13:09.053Z,19.00
2022-08-18T02:13:20.786Z,19.00
2022-08-18T02:13:32.739Z,18.90
2022-08-18T02:13:44.591Z,19.00
2022-08-18T02:13:56.392Z,19.00
2022-08-18T02:14:08.111Z,19.00
2022-08-18T02:14:19.870Z,19.00
2022-08-18T02:14:38.936Z,18.90
2022-08-18T02:14:51.789Z,19.00
2022-08-18T02:15:05.058Z,19.00
2022-08-18T02:15:16.899Z,19.00
2022-08-18T02:15:28.608Z,19.00
2022-08-18T02:15:41.576Z,19.00
2022-08-18T02:15:54.649Z,19.00
2022-08-18T02:16:07.613Z,19.00
2022-08-18T02:16:19.764Z,19.00
2022-08-18T02:16:33.458Z,19.00
2022-08-18T02:16:45.182Z,19.00
2022-08-18T02:17:01.738Z,18.90
2022-08-18T02:17:14.507Z,18.90
2022-08-18T02:17:26.334Z,18.90
2022-08-18T02:17:39.120Z,18.90
2022-08-18T02:17:51.009Z,18.90
2022-08-18T02:18:02.840Z,18.90
2022-08-18T02:18:34.817Z,18.90
2022-08-18T02:18:50.620Z,18.90
2022-08-18T02:19:02.570Z,18.90
2022-08-18T02:19:14.532Z,18.90
2022-08-18T02:19:26.298Z,18.90
2022-08-18T02:19:45.594Z,18.90
2022-08-18T02:19:57.309Z,18.90
2022-08-18T02:20:10.610Z,18.90
2022-08-18T02:20:22.353Z,18.90
2022-08-18T02:20:34.089Z,18.90
2022-08-18T02:20:46.144Z,18.90
2022-08-18T02:20:58.347Z,18.90
2022-08-18T02:21:13.886Z,18.90
2022-08-18T02:21:25.707Z,18.80
2022-08-18T02:21:37.405Z,18.90
2022-08-18T02:21:49.248Z,18.90
2022-08-18T02:22:01.514Z,18.80
2022-08-18T02:22:15.134Z,18.80
2022-08-18T02:22:26.957Z,18.80
2022-08-18T02:22:38.734Z,18.80
2022-08-18T02:22:50.667Z,18.80
2022-08-18T02:23:02.672Z,18.80
2022-08-18T02:23:14.612Z,18.80
2022-08-18T02:23:26.319Z,18.80
2022-08-18T02:23:38.801Z,18.80
2022-08-18T02:23:53.348Z,18.80
2022-08-18T02:24:05.950Z,18.80
2022-08-18T02:24:17.663Z,18.80
2022-08-18T02:24:29.448Z,18.80
2022-08-18T02:24:41.179Z,18.80
2022-08-18T02:24:52.874Z,18.80
2022-08-18T02:25:05.187Z,18.80
2022-08-18T02:25:19.073Z,18.80
2022-08-18T02:25:30.781Z,18.80
2022-08-18T02:25:42.931Z,18.80
2022-08-18T02:25:54.633Z,18.80
2022-08-18T02:26:10.346Z,18.80
2022-08-18T02:26:22.251Z,18.80
2022-08-18T02:26:33.961Z,18.80
2022-08-18T02:26:45.686Z,18.80
2022-08-18T02:26:57.356Z,18.80
2022-08-18T02:27:09.726Z,18.80
2022-08-18T02:27:21.422Z,18.80
2022-08-18T02:27:33.235Z,18.80
2022-08-18T02:27:45.857Z,18.80
2022-08-18T02:27:58.095Z,18.80
2022-08-18T02:28:09.869Z,18.80
2022-08-18T02:28:21.589Z,18.80
2022-08-18T02:28:33.368Z,18.80
2022-08-18T02:28:45.170Z,18.80
2022-08-18T02:28:57.533Z,18.80
2022-08-18T02:29:09.597Z,18.80
2022-08-18T02:29:21.408Z,18.80
2022-08-18T02:29:33.155Z,18.80
2022-08-18T02:29:44.966Z,18.80
2022-08-18T02:29:56.750Z,18.80
2022-08-18T02:30:10.676Z,18.80
2022-08-18T02:30:22.432Z,18.80
2022-08-18T02:30:34.500Z,18.70
2022-08-18T02:30:46.219Z,18.70
2022-08-18T02:30:57.941Z,18.70
2022-08-18T02:31:11.925Z,18.70
2022-08-18T02:31:24.369Z,18.70
2022-08-18T02:31:36.219Z,18.70
2022-08-18T02:31:47.956Z,18.70
2022-08-18T02:31:59.695Z,18.70
2022-08-18T02:32:11.487Z,18.70
2022-08-18T02:32:23.212Z,18.70
2022-08-18T02:32:37.298Z,18.70
2022-08-18T02:32:49.033Z,18.70
2022-08-18T02:33:01.648Z,18.70
2022-08-18T02:33:13.363Z,18.70
2022-08-18T02:33:25.041Z,18.80
2022-08-18T02:33:36.799Z,18.80
2022-08-18T02:33:52.259Z,18.80
2022-08-18T02:34:04.437Z,18.80
2022-08-18T02:34:16.890Z,18.80
2022-08-18T02:34:28.649Z,18.80
2022-08-18T02:34:42.594Z,18.80
2022-08-18T02:34:54.386Z,18.80
2022-08-18T02:35:09.438Z,18.80
2022-08-18T02:35:23.576Z,18.80
2022-08-18T02:35:35.579Z,18.80
2022-08-18T02:35:53.974Z,18.80
2022-08-18T02:36:07.130Z,18.80
2022-08-18T02:36:18.907Z,18.80
2022-08-18T02:36:31.061Z,18.80
2022-08-18T02:36:42.869Z,18.80
2022-08-18T02:36:54.615Z,18.80
2022-08-18T02:37:06.428Z,18.80
2022-08-18T02:37:18.227Z,18.80
2022-08-18T02:37:31.202Z,18.80
2022-08-18T02:37:47.818Z,18.70
2022-08-18T02:38:00.353Z,18.70
2022-08-18T02:38:12.232Z,18.70
2022-08-18T02:38:29.660Z,18.80
2022-08-18T02:38:45.205Z,18.80
2022-08-18T02:39:07.029Z,18.80
2022-08-18T02:39:18.773Z,18.80
2022-08-18T02:39:30.623Z,18.80
2022-08-18T02:39:42.455Z,18.80
2022-08-18T02:39:54.263Z,18.80
2022-08-18T02:40:06.602Z,18.80
2022-08-18T02:40:19.162Z,18.80
2022-08-18T02:40:33.825Z,18.80
2022-08-18T02:40:46.524Z,18.80
2022-08-18T02:40:59.766Z,18.80
2022-08-18T02:41:12.306Z,18.80
2022-08-18T02:41:26.125Z,18.80
2022-08-18T02:41:40.987Z,18.80
2022-08-18T02:41:53.483Z,18.80
2022-08-18T02:42:05.886Z,18.80
2022-08-18T02:42:17.744Z,18.80
2022-08-18T02:42:31.019Z,18.80
2022-08-18T02:42:43.854Z,18.70
2022-08-18T02:42:55.725Z,18.80
2022-08-18T02:43:10.124Z,18.70
2022-08-18T02:43:22.175Z,18.70
2022-08-18T02:43:37.710Z,18.70
2022-08-18T02:43:49.881Z,18.70
2022-08-18T02:44:02.146Z,18.70
2022-08-18T02:44:14.323Z,18.70
2022-08-18T02:44:26.047Z,18.70
2022-08-18T02:44:37.787Z,18.70
2022-08-18T02:44:49.486Z,18.70
2022-08-18T02:45:01.225Z,18.70
2022-08-18T02:45:13.283Z,18.70
2022-08-18T02:45:25.153Z,18.70
2022-08-18T02:45:37.834Z,18.70
2022-08-18T02:45:49.671Z,18.70
2022-08-18T02:46:01.483Z,18.70
2022-08-18T02:46:13.352Z,18.70
2022-08-18T02:46:29.968Z,18.70
2022-08-18T02:46:42.143Z,18.70
2022-08-18T02:46:55.857Z,18.70
2022-08-18T02:47:07.712Z,18.70
2022-08-18T02:47:20.496Z,18.70
2022-08-18T02:47:33.775Z,18.70
2022-08-18T02:47:45.677Z,18.70
2022-08-18T02:47:58.208Z,18.70
2022-08-18T02:48:10.493Z,18.70
2022-08-18T02:48:31.119Z,18.70
2022-08-18T02:48:42.841Z,18.70
2022-08-18T02:48:55.627Z,18.70
2022-08-18T02:49:08.277Z,18.70
2022-08-18T02:49:20.015Z,18.70
2022-08-18T02:49:31.756Z,18.70
2022-08-18T02:49:43.531Z,18.70
2022-08-18T02:49:55.267Z,18.70
2022-08-18T02:50:07.495Z,18.70
2022-08-18T02:50:22.867Z,18.70
2022-08-18T02:50:34.555Z,18.70
2022-08-18T02:50:47.159Z,18.70
2022-08-18T02:51:13.574Z,18.70
2022-08-18T02:51:25.791Z,18.70
2022-08-18T02:51:38.141Z,18.70
2022-08-18T02:51:51.194Z,18.60
2022-08-18T02:52:03.489Z,18.60
2022-08-18T02:52:16.693Z,18.60
2022-08-18T02:52:34.234Z,18.60
2022-08-18T02:52:46.034Z,18.60
2022-08-18T02:52:57.746Z,18.60
2022-08-18T02:53:09.684Z,18.60
2022-08-18T02:53:22.286Z,18.60
2022-08-18T02:53:34.097Z,18.60
2022-08-18T02:53:46.629Z,18.60
2022-08-18T02:53:59.592Z,18.50
2022-08-18T02:54:11.550Z,18.50
2022-08-18T02:54:23.486Z,18.50
2022-08-18T02:54:35.260Z,18.50
2022-08-18T02:54:48.387Z,18.50
2022-08-18T02:55:03.322Z,18.50
2022-08-18T02:55:15.994Z,18.50
2022-08-18T02:55:29.285Z,18.50
2022-08-18T02:55:41.007Z,18.50
2022-08-18T02:55:52.698Z,18.50
2022-08-18T02:56:41.346Z,18.50
2022-08-18T02:56:56.001Z,18.50
2022-08-18T02:57:09.794Z,18.40
2022-08-18T02:57:22.541Z,18.40
2022-08-18T02:57:34.236Z,18.40
2022-08-18T02:57:47.020Z,18.40
2022-08-18T02:58:01.825Z,18.40
2022-08-18T02:58:13.561Z,18.40
2022-08-18T02:58:26.171Z,18.40
2022-08-18T02:58:40.062Z,18.40
2022-08-18T02:58:56.544Z,18.40
2022-08-18T02:59:15.462Z,18.30
2022-08-18T02:59:27.724Z,18.40
2022-08-18T02:59:39.845Z,18.30
2022-08-18T02:59:51.790Z,18.30
2022-08-18T03:00:04.445Z,18.30
2022-08-18T03:00:18.973Z,18.30
2022-08-18T03:00:30.800Z,18.30
2022-08-18T03:00:42.918Z,18.30
2022-08-18T03:00:54.674Z,18.30
2022-08-18T03:01:06.555Z,18.30
2022-08-18T03:01:18.367Z,18.30
2022-08-18T03:01:34.847Z,18.30
2022-08-18T03:01:48.600Z,18.30
2022-08-18T03:02:00.375Z,18.30
2022-08-18T03:02:12.654Z,18.30
2022-08-18T03:02:24.380Z,18.30
2022-08-18T03:02:36.240Z,18.30
2022-08-18T03:02:51.543Z,18.30
2022-08-18T03:03:03.378Z,18.30
2022-08-18T03:03:15.118Z,18.30
2022-08-18T03:03:26.861Z,18.30
2022-08-18T03:03:38.669Z,18.30
2022-08-18T03:03:50.414Z,18.30
2022-08-18T03:04:02.594Z,18.30
2022-08-18T03:04:17.588Z,18.30
2022-08-18T03:04:30.529Z,18.30
2022-08-18T03:04:42.533Z,18.30
2022-08-18T03:04:54.269Z,18.30
2022-08-18T03:05:07.233Z,18.30
2022-08-18T03:05:22.609Z,18.30
2022-08-18T03:05:34.416Z,18.30
2022-08-18T03:05:46.127Z,18.30
2022-08-18T03:05:57.813Z,18.30
2022-08-18T03:06:09.541Z,18.30
2022-08-18T03:06:21.480Z,18.30
2022-08-18T03:06:33.919Z,18.30
2022-08-18T03:06:45.920Z,18.30
2022-08-18T03:07:01.636Z,18.30
2022-08-18T03:07:14.701Z,18.30
2022-08-18T03:07:26.395Z,18.30
2022-08-18T03:07:38.157Z,18.30
2022-08-18T03:07:51.946Z,18.30
2022-08-18T03:08:04.019Z,18.40
2022-08-18T03:08:15.770Z,18.30
2022-08-18T03:08:27.502Z,18.30
2022-08-18T03:08:39.246Z,18.30
2022-08-18T03:08:51.718Z,18.30
2022-08-18T03:09:05.050Z,18.30
2022-08-18T03:09:17.295Z,18.40
2022-08-18T03:09:29.522Z,18.30
2022-08-18T03:09:41.688Z,18.30
2022-08-18T03:09:53.380Z,18.30
2022-08-18T03:10:31.971Z,18.30
2022-08-18T03:10:37.294Z,18.30
2022-08-18T03:10:52.006Z,18.30
2022-08-18T03:11:03.722Z,18.30
2022-08-18T03:11:16.907Z,18.30
2022-08-18T03:11:29.081Z,18.30
2022-08-18T03:11:40.887Z,18.30
2022-08-18T03:11:55.479Z,18.30
2022-08-18T03:12:08.491Z,18.30
2022-08-18T03:12:20.238Z,18.30
2022-08-18T03:12:31.948Z,18.30
2022-08-18T03:12:43.973Z,18.30